createdAt,value
2023-01-29T00:01:19.779Z,101990.31
2023-01-29T00:03:46.171Z,101993.34
2023-01-29T00:06:12.778Z,101996.84
2023-01-29T00:08:39.311Z,101995.47
2023-01-29T00:11:07.644Z,102000.03
2023-01-29T00:13:34.618Z,101999.28
2023-01-29T00:16:01.626Z,101998.97
2023-01-29T00:18:29.043Z,102008.75
2023-01-29T00:20:55.645Z,102003.69
2023-01-29T00:23:23.197Z,102002.28
2023-01-29T00:25:49.488Z,102004.91
2023-01-29T00:28:16.034Z,101997.16
2023-01-29T00:30:42.388Z,102013.13
2023-01-29T00:33:08.799Z,102023.44
2023-01-29T00:35:35.292Z,102018.97
2023-01-29T00:38:01.651Z,102018.47
2023-01-29T00:40:28.091Z,102025.44
2023-01-29T00:43:12.910Z,102020.69
2023-01-29T00:45:39.311Z,102019.38
2023-01-29T00:48:06.315Z,102024.59
2023-01-29T00:50:32.741Z,102022.97
2023-01-29T00:52:59.118Z,102015.72
2023-01-29T00:55:25.411Z,102015.91
2023-01-29T00:57:51.797Z,102017.72
2023-01-29T01:00:19.543Z,102011.91
2023-01-29T01:06:55.351Z,102011.44
2023-01-29T01:09:40.041Z,102012.63
2023-01-29T01:12:06.457Z,102009.97
2023-01-29T01:14:36.048Z,102008.50
2023-01-29T01:17:02.351Z,102005.78
2023-01-29T01:19:28.675Z,101993.34
2023-01-29T01:21:54.952Z,101994.13
2023-01-29T01:24:21.381Z,101998.34
2023-01-29T01:26:47.741Z,101996.38
2023-01-29T01:29:14.454Z,101989.63
2023-01-29T01:31:40.760Z,101990.53
2023-01-29T01:34:07.190Z,101990.53
2023-01-29T01:36:33.513Z,101977.50
2023-01-29T01:38:59.806Z,101985.94
2023-01-29T01:41:26.285Z,101977.34
2023-01-29T01:43:55.913Z,101984.13
2023-01-29T01:46:23.036Z,101979.25
2023-01-29T01:48:57.712Z,101977.81
2023-01-29T01:51:27.209Z,101969.78
2023-01-29T01:54:24.718Z,101968.34
2023-01-29T01:57:04.824Z,101961.59
2023-01-29T01:59:33.501Z,101950.38
2023-01-29T02:02:18.139Z,101946.00
2023-01-29T02:05:06.446Z,101946.00
2023-01-29T02:07:51.831Z,101943.41
2023-01-29T02:10:19.029Z,101947.78
2023-01-29T02:12:46.578Z,101938.16
2023-01-29T02:15:13.903Z,101940.88
2023-01-29T02:17:40.397Z,101935.72
2023-01-29T02:20:18.210Z,101934.56
2023-01-29T02:23:27.087Z,101937.47
2023-01-29T02:26:14.716Z,101934.81
2023-01-29T02:29:27.041Z,101938.41
2023-01-29T02:32:20.327Z,101945.44
2023-01-29T02:35:18.546Z,101942.00
2023-01-29T02:37:59.910Z,101945.56
2023-01-29T02:40:42.169Z,101942.09
2023-01-29T02:43:23.450Z,101957.63
2023-01-29T02:45:59.544Z,101951.41
2023-01-29T02:48:37.881Z,101960.38
2023-01-29T02:51:18.629Z,101964.72
2023-01-29T02:54:09.965Z,101971.88
2023-01-29T02:56:49.069Z,101984.09
2023-01-29T02:59:21.954Z,101984.75
2023-01-29T03:01:53.582Z,101993.25
2023-01-29T03:04:26.340Z,101991.88
2023-01-29T03:07:35.877Z,101981.41
2023-01-29T03:10:05.696Z,101978.72
2023-01-29T03:12:36.757Z,101978.44
2023-01-29T03:15:11.524Z,101979.09
2023-01-29T03:17:51.073Z,101971.34
2023-01-29T03:20:22.569Z,101966.66
2023-01-29T03:22:57.804Z,101961.78
2023-01-29T03:25:45.951Z,101961.09
2023-01-29T03:28:35.575Z,101967.63
2023-01-29T03:31:28.635Z,101983.59
2023-01-29T03:34:06.651Z,101991.50
2023-01-29T03:36:45.712Z,101989.72
2023-01-29T03:39:13.955Z,101988.81
2023-01-29T03:41:49.657Z,101988.78
2023-01-29T03:44:19.158Z,101986.09
2023-01-29T03:46:56.491Z,101991.38
2023-01-29T03:49:55.108Z,101990.63
2023-01-29T03:52:39.855Z,101977.50
2023-01-29T03:55:58.173Z,101966.88
2023-01-29T03:58:39.010Z,101957.38
2023-01-29T04:01:18.290Z,101963.47
2023-01-29T04:04:01.716Z,101957.44
2023-01-29T04:06:32.828Z,101972.41
2023-01-29T04:09:12.372Z,101976.06
2023-01-29T04:11:44.991Z,101983.94
2023-01-29T04:14:12.894Z,101970.88
2023-01-29T04:16:44.409Z,101980.56
2023-01-29T04:19:11.811Z,101979.69
2023-01-29T04:21:38.569Z,101955.91
2023-01-29T04:24:06.897Z,101948.28
2023-01-29T04:26:57.863Z,101937.72
2023-01-29T04:29:40.501Z,101930.75
2023-01-29T04:32:15.023Z,101929.94
2023-01-29T04:35:00.668Z,101946.75
2023-01-29T04:37:33.316Z,101948.63
2023-01-29T04:40:23.677Z,101936.38
2023-01-29T04:43:03.251Z,101917.88
2023-01-29T04:45:58.316Z,101931.94
2023-01-29T04:48:46.988Z,101943.38
2023-01-29T04:51:22.885Z,101953.91
2023-01-29T04:54:08.242Z,101953.91
2023-01-29T04:56:43.428Z,101949.50
2023-01-29T04:59:14.590Z,101955.63
2023-01-29T05:01:41.902Z,101966.13
2023-01-29T05:04:12.550Z,101965.31
2023-01-29T05:06:40.036Z,101970.44
2023-01-29T05:09:07.959Z,101958.16
2023-01-29T05:11:35.804Z,101961.63
2023-01-29T05:14:05.394Z,101960.84
2023-01-29T05:16:47.392Z,101969.63
2023-01-29T05:19:15.979Z,101963.59
2023-01-29T05:21:46.006Z,101961.84
2023-01-29T05:24:16.241Z,101956.59
2023-01-29T05:27:03.087Z,101954.91
2023-01-29T05:29:29.370Z,101958.34
2023-01-29T05:31:55.776Z,101960.09
2023-01-29T05:34:22.420Z,101953.06
2023-01-29T05:36:48.724Z,101943.38
2023-01-29T05:39:15.170Z,101944.19
2023-01-29T05:41:41.445Z,101934.53
2023-01-29T05:44:07.778Z,101933.59
2023-01-29T05:46:34.164Z,101946.75
2023-01-29T05:49:00.497Z,101944.22
2023-01-29T05:51:26.806Z,101946.88
2023-01-29T05:53:53.827Z,101948.66
2023-01-29T05:56:20.156Z,101943.56
2023-01-29T05:58:46.516Z,101953.97
2023-01-29T06:01:21.689Z,101950.44
2023-01-29T06:03:48.183Z,101951.34
2023-01-29T06:06:15.412Z,101953.00
2023-01-29T06:08:42.242Z,101952.16
2023-01-29T06:11:11.188Z,101947.69
2023-01-29T06:13:38.175Z,101942.44
2023-01-29T06:16:08.760Z,101952.09
2023-01-29T06:18:39.211Z,101953.00
2023-01-29T06:21:07.937Z,101947.75
2023-01-29T06:23:34.506Z,101955.63
2023-01-29T06:26:02.436Z,101953.97
2023-01-29T06:28:28.795Z,101958.25
2023-01-29T06:31:21.017Z,101961.69
2023-01-29T06:33:47.941Z,101945.81
2023-01-29T06:36:14.320Z,101945.56
2023-01-29T06:38:40.835Z,101947.50
2023-01-29T06:41:16.437Z,101942.28
2023-01-29T06:43:46.173Z,101933.50
2023-01-29T06:46:12.613Z,101926.50
2023-01-29T06:48:39.376Z,101939.63
2023-01-29T06:51:07.605Z,101938.53
2023-01-29T06:53:35.061Z,101936.00
2023-01-29T06:56:01.906Z,101936.97
2023-01-29T06:58:28.208Z,101940.13
2023-01-29T07:00:54.651Z,101938.53
2023-01-29T07:03:21.036Z,101943.91
2023-01-29T07:05:52.199Z,101930.16
2023-01-29T07:08:19.282Z,101949.31
2023-01-29T07:10:45.684Z,101952.78
2023-01-29T07:13:12.030Z,101961.50
2023-01-29T07:15:38.362Z,101961.16
2023-01-29T07:18:11.767Z,101964.53
2023-01-29T07:20:40.598Z,101971.72
2023-01-29T07:23:10.770Z,101975.06
2023-01-29T07:25:37.458Z,101976.03
2023-01-29T07:28:04.185Z,101982.03
2023-01-29T07:30:30.652Z,101986.50
2023-01-29T07:33:01.777Z,101986.84
2023-01-29T07:35:28.045Z,101984.09
2023-01-29T07:37:54.393Z,101984.06
2023-01-29T07:40:20.750Z,101986.94
2023-01-29T07:42:47.115Z,101987.84
2023-01-29T07:45:13.539Z,101985.97
2023-01-29T07:47:39.918Z,101985.97
2023-01-29T07:50:06.915Z,101993.16
2023-01-29T07:52:34.019Z,101986.88
2023-01-29T07:55:00.341Z,101982.19
2023-01-29T07:57:26.723Z,101981.34
2023-01-29T07:59:53.114Z,101972.72
2023-01-29T08:05:10.260Z,101950.78
2023-01-29T08:07:37.977Z,101950.81
2023-01-29T08:10:05.022Z,101949.00
2023-01-29T08:12:31.390Z,101949.78
2023-01-29T08:14:57.844Z,101963.00
2023-01-29T08:17:24.126Z,101962.88
2023-01-29T08:19:50.711Z,101976.81
2023-01-29T08:22:17.314Z,101978.50
2023-01-29T08:24:53.888Z,101983.69
2023-01-29T08:27:26.578Z,101987.19
2023-01-29T08:29:52.947Z,101995.97
2023-01-29T08:32:19.300Z,101991.53
2023-01-29T08:34:45.657Z,101985.00
2023-01-29T08:37:11.967Z,101971.13
2023-01-29T08:39:38.370Z,101961.56
2023-01-29T08:42:04.783Z,101959.75
2023-01-29T08:44:31.092Z,101948.97
2023-01-29T08:46:57.460Z,101955.03
2023-01-29T08:49:23.863Z,101962.78
2023-01-29T08:51:51.439Z,101965.25
2023-01-29T08:54:17.886Z,101973.94
2023-01-29T08:56:44.213Z,101978.28
2023-01-29T08:59:10.970Z,101994.56
2023-01-29T09:01:37.350Z,101990.88
2023-01-29T09:04:03.680Z,101976.91
2023-01-29T09:06:30.027Z,101988.03
2023-01-29T09:08:56.659Z,102002.47
2023-01-29T09:11:23.087Z,101999.41
2023-01-29T09:13:49.454Z,101987.84
2023-01-29T09:16:15.861Z,101989.84
2023-01-29T09:18:42.200Z,101995.34
2023-01-29T09:21:08.631Z,102006.84
2023-01-29T09:23:35.122Z,102017.13
2023-01-29T09:26:01.593Z,102017.91
2023-01-29T09:28:27.953Z,102038.16
2023-01-29T09:30:54.504Z,102033.94
2023-01-29T09:33:20.988Z,102012.00
2023-01-29T09:35:47.301Z,102024.34
2023-01-29T09:38:14.379Z,102026.03
2023-01-29T09:41:02.178Z,102024.50
2023-01-29T09:44:10.904Z,102029.03
2023-01-29T09:46:43.324Z,102033.03
2023-01-29T09:49:26.235Z,102036.81
2023-01-29T09:51:59.222Z,102031.09
2023-01-29T09:54:59.919Z,102026.75
2023-01-29T09:57:34.200Z,102029.53
2023-01-29T10:00:00.685Z,102026.34
2023-01-29T10:02:46.291Z,102029.84
2023-01-29T10:05:38.677Z,102023.25
2023-01-29T10:08:22.108Z,102021.41
2023-01-29T10:10:50.441Z,102012.16
2023-01-29T10:13:39.768Z,102018.25
2023-01-29T10:16:39.746Z,102016.50
2023-01-29T10:19:38.836Z,102011.84
2023-01-29T10:22:21.273Z,102011.66
2023-01-29T10:24:55.677Z,102007.28
2023-01-29T10:27:23.221Z,102002.75
2023-01-29T10:29:53.534Z,101992.16
2023-01-29T10:32:24.550Z,101979.63
2023-01-29T10:35:02.507Z,101967.53
2023-01-29T10:37:38.663Z,101942.88
2023-01-29T10:40:21.529Z,101953.03
2023-01-29T10:43:13.325Z,101957.72
2023-01-29T10:46:05.169Z,101962.00
2023-01-29T10:49:01.407Z,101946.97
2023-01-29T10:51:39.953Z,101941.78
2023-01-29T10:56:55.410Z,101932.78
2023-01-29T10:59:40.574Z,101932.19
2023-01-29T11:02:19.538Z,101927.06
2023-01-29T11:04:46.177Z,101926.09
2023-01-29T11:07:16.307Z,101925.94
2023-01-29T11:09:51.580Z,101911.03
2023-01-29T11:12:27.204Z,101899.72
2023-01-29T11:15:03.952Z,101887.94
2023-01-29T11:17:30.308Z,101892.88
2023-01-29T11:19:56.720Z,101886.47
2023-01-29T11:22:25.621Z,101891.66
2023-01-29T11:25:32.616Z,101886.34
2023-01-29T11:28:01.708Z,101870.88
2023-01-29T11:30:37.342Z,101878.69
2023-01-29T11:33:08.726Z,101882.81
2023-01-29T11:35:36.589Z,101873.16
2023-01-29T11:38:23.830Z,101880.03
2023-01-29T11:40:50.377Z,101882.34
2023-01-29T11:43:30.836Z,101875.63
2023-01-29T11:46:03.106Z,101874.84
2023-01-29T11:48:40.905Z,101867.47
2023-01-29T11:51:10.275Z,101867.16
2023-01-29T11:53:43.362Z,101859.44
2023-01-29T11:56:34.865Z,101856.25
2023-01-29T11:59:04.516Z,101860.41
2023-01-29T12:01:36.215Z,101853.41
2023-01-29T12:04:04.209Z,101844.06
2023-01-29T12:06:37.410Z,101844.50
2023-01-29T12:09:16.116Z,101838.00
2023-01-29T12:11:43.226Z,101828.91
2023-01-29T12:14:33.262Z,101828.94
2023-01-29T12:17:06.631Z,101828.78
2023-01-29T12:19:49.673Z,101811.25
2023-01-29T12:22:53.185Z,101813.09
2023-01-29T12:25:25.857Z,101808.97
2023-01-29T12:28:09.448Z,101796.84
2023-01-29T12:31:07.463Z,101800.16
2023-01-29T12:33:48.281Z,101797.56
2023-01-29T12:36:24.551Z,101794.38
2023-01-29T12:38:51.020Z,101778.00
2023-01-29T12:41:21.515Z,101786.72
2023-01-29T12:43:59.220Z,101778.63
2023-01-29T12:46:29.991Z,101771.75
2023-01-29T12:49:01.785Z,101775.06
2023-01-29T12:51:35.792Z,101767.66
2023-01-29T12:54:08.394Z,101760.97
2023-01-29T12:56:43.973Z,101758.47
2023-01-29T12:59:15.409Z,101748.41
2023-01-29T13:01:52.417Z,101749.41
2023-01-29T13:04:48.309Z,101750.78
2023-01-29T13:07:18.760Z,101751.44
2023-01-29T13:09:53.100Z,101751.50
2023-01-29T13:12:21.927Z,101741.03
2023-01-29T13:14:53.881Z,101743.63
2023-01-29T13:17:42.395Z,101736.47
2023-01-29T13:20:30.219Z,101728.63
2023-01-29T13:23:04.459Z,101731.13
2023-01-29T13:25:31.044Z,101733.03
2023-01-29T13:27:57.818Z,101718.25
2023-01-29T13:30:32.268Z,101711.88
2023-01-29T13:33:11.016Z,101710.94
2023-01-29T13:35:41.879Z,101704.75
2023-01-29T13:38:25.314Z,101709.00
2023-01-29T13:40:54.254Z,101707.69
2023-01-29T13:43:23.347Z,101714.81
2023-01-29T13:45:52.651Z,101711.31
2023-01-29T13:48:30.161Z,101707.63
2023-01-29T13:51:01.169Z,101702.56
2023-01-29T13:53:34.613Z,101699.13
2023-01-29T13:56:34.848Z,101701.56
2023-01-29T13:59:03.295Z,101688.63
2023-01-29T14:01:47.704Z,101685.28
2023-01-29T14:04:25.371Z,101689.34
2023-01-29T14:06:55.674Z,101681.56
2023-01-29T14:09:40.372Z,101677.97
2023-01-29T14:12:33.479Z,101678.78
2023-01-29T14:15:19.029Z,101671.03
2023-01-29T14:18:00.130Z,101668.69
2023-01-29T14:20:46.209Z,101667.94
2023-01-29T14:23:27.900Z,101667.25
2023-01-29T14:25:54.744Z,101668.94
2023-01-29T14:28:24.579Z,101669.59
2023-01-29T14:30:51.661Z,101672.31
2023-01-29T14:33:28.360Z,101671.75
2023-01-29T14:35:56.755Z,101672.53
2023-01-29T14:38:25.337Z,101671.34
2023-01-29T14:41:01.765Z,101671.44
2023-01-29T14:43:28.129Z,101674.91
2023-01-29T14:45:54.556Z,101661.53
2023-01-29T14:48:48.378Z,101668.63
2023-01-29T14:51:17.060Z,101673.28
2023-01-29T14:53:49.793Z,101667.09
2023-01-29T14:56:36.092Z,101653.13
2023-01-29T14:59:23.491Z,101642.56
2023-01-29T15:01:55.975Z,101655.88
2023-01-29T15:04:53.820Z,101647.91
2023-01-29T15:07:27.580Z,101641.81
2023-01-29T15:10:21.984Z,101641.81
2023-01-29T15:13:13.603Z,101645.59
2023-01-29T15:15:55.620Z,101637.63
2023-01-29T15:18:35.040Z,101639.19
2023-01-29T15:21:04.712Z,101634.09
2023-01-29T15:23:33.919Z,101634.06
2023-01-29T15:26:03.244Z,101629.63
2023-01-29T15:28:32.062Z,101620.97
2023-01-29T15:31:01.131Z,101612.13
2023-01-29T15:33:28.651Z,101611.19
2023-01-29T15:36:08.550Z,101619.00
2023-01-29T15:38:35.814Z,101616.41
2023-01-29T15:41:18.449Z,101604.25
2023-01-29T15:43:48.682Z,101603.50
2023-01-29T15:46:25.937Z,101595.69
2023-01-29T15:48:55.158Z,101594.84
2023-01-29T15:51:24.971Z,101589.63
2023-01-29T15:53:55.108Z,101590.44
2023-01-29T15:56:27.736Z,101584.28
2023-01-29T15:58:57.361Z,101584.56
2023-01-29T16:01:27.341Z,101582.84
2023-01-29T16:03:54.541Z,101583.03
2023-01-29T16:06:22.099Z,101566.72
2023-01-29T16:08:51.989Z,101573.84
2023-01-29T16:11:19.639Z,101572.19
2023-01-29T16:13:49.792Z,101577.47
2023-01-29T16:16:16.081Z,101580.25
2023-01-29T16:18:57.827Z,101578.38
2023-01-29T16:21:28.373Z,101583.81
2023-01-29T16:24:07.442Z,101590.03
2023-01-29T16:26:37.060Z,101596.28
2023-01-29T16:29:06.635Z,101586.94
2023-01-29T16:31:33.684Z,101593.97
2023-01-29T16:34:07.335Z,101600.16
2023-01-29T16:36:33.692Z,101595.09
2023-01-29T16:39:05.233Z,101592.78
2023-01-29T16:41:35.855Z,101611.34
2023-01-29T16:44:20.481Z,101607.91
2023-01-29T16:46:48.227Z,101601.97
2023-01-29T16:49:26.973Z,101602.88
2023-01-29T16:51:56.233Z,101601.22
2023-01-29T16:54:27.437Z,101611.72
2023-01-29T16:56:59.974Z,101602.25
2023-01-29T16:59:33.049Z,101602.44
2023-01-29T17:02:00.085Z,101612.13
2023-01-29T17:04:28.011Z,101616.63
2023-01-29T17:06:58.044Z,101622.88
2023-01-29T17:09:28.488Z,101626.53
2023-01-29T17:12:07.286Z,101630.94
2023-01-29T17:14:34.349Z,101631.19
2023-01-29T17:17:16.140Z,101638.31
2023-01-29T17:19:42.452Z,101636.59
2023-01-29T17:22:14.528Z,101631.47
2023-01-29T17:24:41.915Z,101641.09
2023-01-29T17:27:17.062Z,101636.59
2023-01-29T17:29:43.396Z,101633.97
2023-01-29T17:32:09.931Z,101637.59
2023-01-29T17:34:36.281Z,101642.09
2023-01-29T17:37:02.675Z,101637.69
2023-01-29T17:39:28.982Z,101634.25
2023-01-29T17:41:57.704Z,101622.69
2023-01-29T17:44:27.654Z,101626.09
2023-01-29T17:46:54.301Z,101632.28
2023-01-29T17:49:32.520Z,101624.56
2023-01-29T17:51:59.685Z,101624.66
2023-01-29T17:54:26.388Z,101620.28
2023-01-29T17:56:53.265Z,101623.84
2023-01-29T17:59:25.576Z,101628.25
2023-01-29T18:01:53.003Z,101621.38
2023-01-29T18:04:19.711Z,101611.88
2023-01-29T18:06:48.989Z,101610.22
2023-01-29T18:09:18.656Z,101613.84
2023-01-29T18:11:44.944Z,101615.63
2023-01-29T18:14:14.148Z,101624.28
2023-01-29T18:16:42.774Z,101608.25
2023-01-29T18:19:15.185Z,101612.63
2023-01-29T18:21:41.714Z,101608.13
2023-01-29T18:24:08.225Z,101606.38
2023-01-29T18:26:35.828Z,101603.84
2023-01-29T18:29:02.349Z,101603.06
2023-01-29T18:31:28.660Z,101603.00
2023-01-29T18:33:55.027Z,101603.81
2023-01-29T18:36:21.390Z,101601.22
2023-01-29T18:38:47.995Z,101603.94
2023-01-29T18:41:14.415Z,101594.34
2023-01-29T18:43:41.790Z,101596.13
2023-01-29T18:46:09.006Z,101604.09
2023-01-29T18:48:35.585Z,101596.25
2023-01-29T18:51:02.143Z,101589.22
2023-01-29T18:53:28.573Z,101595.41
2023-01-29T18:56:04.052Z,101594.72
2023-01-29T18:58:36.369Z,101596.44
2023-01-29T19:01:09.087Z,101595.53
2023-01-29T19:03:36.292Z,101593.81
2023-01-29T19:06:04.667Z,101591.44
2023-01-29T19:08:31.753Z,101593.28
2023-01-29T19:11:02.032Z,101586.31
2023-01-29T19:13:31.832Z,101581.16
2023-01-29T19:15:58.180Z,101584.69
2023-01-29T19:18:26.020Z,101584.72
2023-01-29T19:20:52.950Z,101588.31
2023-01-29T19:23:19.669Z,101583.19
2023-01-29T19:25:46.116Z,101578.00
2023-01-29T19:28:12.478Z,101585.75
2023-01-29T19:30:38.826Z,101583.13
2023-01-29T19:33:05.325Z,101585.81
2023-01-29T19:35:32.567Z,101582.34
2023-01-29T19:38:00.399Z,101584.91
2023-01-29T19:40:27.048Z,101577.94
2023-01-29T19:42:55.402Z,101579.00
2023-01-29T19:45:49.581Z,101572.91
2023-01-29T19:48:12.261Z,101564.19
2023-01-29T19:50:38.982Z,101564.13
2023-01-29T19:53:05.263Z,101567.63
2023-01-29T19:55:31.660Z,101569.22
2023-01-29T19:57:58.701Z,101574.50
2023-01-29T20:00:25.215Z,101572.72
2023-01-29T20:02:51.696Z,101573.81
2023-01-29T20:05:18.654Z,101573.84
2023-01-29T20:07:45.658Z,101570.22
2023-01-29T20:10:17.123Z,101568.47
2023-01-29T20:12:44.996Z,101573.63
2023-01-29T20:15:13.401Z,101572.94
2023-01-29T20:17:39.840Z,101576.41
2023-01-29T20:20:06.922Z,101578.34
2023-01-29T20:22:33.374Z,101581.56
2023-01-29T20:24:59.729Z,101590.22
2023-01-29T20:27:26.220Z,101578.13
2023-01-29T20:29:52.651Z,101587.53
2023-01-29T20:32:19.177Z,101572.06
2023-01-29T20:34:49.504Z,101554.50
2023-01-29T20:37:15.903Z,101555.84
2023-01-29T20:39:42.226Z,101563.56
2023-01-29T20:42:08.513Z,101543.31
2023-01-29T20:44:34.835Z,101535.03
2023-01-29T20:47:02.535Z,101535.81
2023-01-29T20:49:28.986Z,101524.34
2023-01-29T20:51:55.539Z,101499.91
2023-01-29T20:54:21.854Z,101507.44
2023-01-29T20:56:48.263Z,101497.78
2023-01-29T20:59:14.886Z,101493.44
2023-01-29T21:01:42.428Z,101485.47
2023-01-29T21:04:09.182Z,101484.66
2023-01-29T21:06:35.502Z,101490.69
2023-01-29T21:09:01.811Z,101486.25
2023-01-29T21:11:28.563Z,101478.34
2023-01-29T21:13:57.572Z,101485.34
2023-01-29T21:16:26.100Z,101482.50
2023-01-29T21:18:55.660Z,101484.09
2023-01-29T21:21:22.046Z,101474.38
2023-01-29T21:23:48.916Z,101479.69
2023-01-29T21:26:15.326Z,101482.94
2023-01-29T21:28:41.628Z,101473.38
2023-01-29T21:31:11.458Z,101462.81
2023-01-29T21:33:38.015Z,101461.75
2023-01-29T21:36:04.701Z,101460.94
2023-01-29T21:38:30.999Z,101459.16
2023-01-29T21:41:01.531Z,101468.84
2023-01-29T21:43:28.107Z,101464.34
2023-01-29T21:45:57.072Z,101451.22
2023-01-29T21:48:23.635Z,101449.31
2023-01-29T21:50:52.898Z,101448.47
2023-01-29T21:53:19.727Z,101450.28
2023-01-29T21:55:46.484Z,101451.16
2023-01-29T21:58:14.555Z,101435.22
2023-01-29T22:00:41.120Z,101408.97
2023-01-29T22:03:07.566Z,101397.47
2023-01-29T22:05:34.052Z,101394.94
2023-01-29T22:08:00.435Z,101396.78
2023-01-29T22:10:27.519Z,101398.50
2023-01-29T22:12:54.082Z,101398.50
2023-01-29T22:15:22.518Z,101396.69
2023-01-29T22:17:49.832Z,101403.78
2023-01-29T22:20:16.787Z,101394.94
2023-01-29T22:22:43.373Z,101397.50
2023-01-29T22:25:09.835Z,101389.41
2023-01-29T22:27:36.731Z,101385.19
2023-01-29T22:30:05.086Z,101388.69
2023-01-29T22:32:32.587Z,101395.69
2023-01-29T22:34:58.967Z,101397.47
2023-01-29T22:37:25.309Z,101388.53
2023-01-29T22:39:51.642Z,101384.34
2023-01-29T22:42:20.111Z,101376.31
2023-01-29T22:44:47.846Z,101380.56
2023-01-29T22:47:14.147Z,101372.66
2023-01-29T22:49:40.494Z,101368.13
2023-01-29T22:52:12.501Z,101368.03
2023-01-29T22:54:41.056Z,101358.38
2023-01-29T22:57:09.925Z,101351.34
2023-01-29T22:59:36.408Z,101365.50
2023-01-29T23:02:02.817Z,101370.72
2023-01-29T23:04:29.126Z,101360.03
2023-01-29T23:06:55.420Z,101365.28
2023-01-29T23:09:21.823Z,101358.22
2023-01-29T23:11:48.265Z,101341.41
2023-01-29T23:14:14.700Z,101338.78
2023-01-29T23:16:41.096Z,101333.50
2023-01-29T23:19:07.494Z,101326.16
2023-01-29T23:21:33.922Z,101318.19
2023-01-29T23:24:01.095Z,101311.88
2023-01-29T23:26:47.329Z,101310.97
2023-01-29T23:29:14.458Z,101333.03
2023-01-29T23:31:40.839Z,101330.50
2023-01-29T23:34:07.306Z,101337.41
2023-01-29T23:36:33.737Z,101332.06
2023-01-29T23:39:00.046Z,101342.50
2023-01-29T23:41:26.347Z,101345.13
2023-01-29T23:43:53.056Z,101336.31
2023-01-29T23:46:19.540Z,101328.03
2023-01-29T23:48:46.429Z,101333.84
2023-01-29T23:51:12.751Z,101319.78
2023-01-29T23:53:39.057Z,101331.09
2023-01-29T23:56:06.290Z,101323.03
2023-01-29T23:58:33.446Z,101331.63
